sensor_id;sensor_type;location;lat;lon;timestamp;P1;durP1;ratioP1;P2;durP2;ratioP2
6723;SDS011;3399;52.530;13.304;2022-09-24T00:01:27;6.47;;;5.00;;
6723;SDS011;3399;52.530;13.304;2022-09-24T00:03:55;5.33;;;4.23;;
6723;SDS011;3399;52.530;13.304;2022-09-24T00:06:24;4.60;;;4.20;;
6723;SDS011;3399;52.530;13.304;2022-09-24T00:08:51;7.87;;;6.37;;
6723;SDS011;3399;52.530;13.304;2022-09-24T00:11:19;5.83;;;5.33;;
6723;SDS011;3399;52.530;13.304;2022-09-24T00:13:45;5.03;;;4.63;;
6723;SDS011;3399;52.530;13.304;2022-09-24T00:16:13;4.67;;;4.27;;
6723;SDS011;3399;52.530;13.304;2022-09-24T00:18:40;5.53;;;4.50;;
6723;SDS011;3399;52.530;13.304;2022-09-24T00:21:20;5.47;;;4.97;;
6723;SDS011;3399;52.530;13.304;2022-09-24T00:23:48;6.70;;;4.77;;
6723;SDS011;3399;52.530;13.304;2022-09-24T00:26:19;6.30;;;5.03;;
6723;SDS011;3399;52.530;13.304;2022-09-24T00:29:04;5.83;;;5.20;;
6723;SDS011;3399;52.530;13.304;2022-09-24T00:31:30;7.60;;;5.00;;
6723;SDS011;3399;52.530;13.304;2022-09-24T00:33:56;6.30;;;4.63;;
6723;SDS011;3399;52.530;13.304;2022-09-24T00:36:22;7.67;;;5.17;;
6723;SDS011;3399;52.530;13.304;2022-09-24T00:38:52;5.47;;;4.97;;
6723;SDS011;3399;52.530;13.304;2022-09-24T00:41:19;6.90;;;5.27;;
6723;SDS011;3399;52.530;13.304;2022-09-24T00:43:46;5.63;;;4.87;;
6723;SDS011;3399;52.530;13.304;2022-09-24T00:46:26;7.20;;;5.30;;
6723;SDS011;3399;52.530;13.304;2022-09-24T00:49:03;5.80;;;5.30;;
6723;SDS011;3399;52.530;13.304;2022-09-24T00:51:35;5.30;;;4.80;;
6723;SDS011;3399;52.530;13.304;2022-09-24T00:54:04;6.90;;;5.47;;
6723;SDS011;3399;52.530;13.304;2022-09-24T00:56:34;5.93;;;5.43;;
6723;SDS011;3399;52.530;13.304;2022-09-24T00:59:02;6.23;;;5.63;;
6723;SDS011;3399;52.530;13.304;2022-09-24T01:01:30;6.00;;;4.90;;
6723;SDS011;3399;52.530;13.304;2022-09-24T01:03:56;6.77;;;6.07;;
6723;SDS011;3399;52.530;13.304;2022-09-24T01:06:23;5.57;;;5.07;;
6723;SDS011;3399;52.530;13.304;2022-09-24T01:08:50;6.70;;;5.33;;
6723;SDS011;3399;52.530;13.304;2022-09-24T01:11:35;6.10;;;5.13;;
6723;SDS011;3399;52.530;13.304;2022-09-24T01:14:21;6.37;;;5.30;;
6723;SDS011;3399;52.530;13.304;2022-09-24T01:17:22;6.57;;;5.40;;
6723;SDS011;3399;52.530;13.304;2022-09-24T01:20:27;5.60;;;5.10;;
6723;SDS011;3399;52.530;13.304;2022-09-24T01:23:38;5.53;;;4.90;;
6723;SDS011;3399;52.530;13.304;2022-09-24T01:29:36;6.50;;;5.90;;
6723;SDS011;3399;52.530;13.304;2022-09-24T01:34:56;6.10;;;5.47;;
6723;SDS011;3399;52.530;13.304;2022-09-24T01:37:39;6.27;;;5.77;;
6723;SDS011;3399;52.530;13.304;2022-09-24T01:40:09;6.87;;;6.13;;
6723;SDS011;3399;52.530;13.304;2022-09-24T01:42:36;6.93;;;6.30;;
6723;SDS011;3399;52.530;13.304;2022-09-24T01:45:04;7.70;;;6.90;;
6723;SDS011;3399;52.530;13.304;2022-09-24T01:47:32;6.43;;;5.83;;
6723;SDS011;3399;52.530;13.304;2022-09-24T01:50:02;6.50;;;5.90;;
6723;SDS011;3399;52.530;13.304;2022-09-24T01:52:30;6.97;;;6.00;;
6723;SDS011;3399;52.530;13.304;2022-09-24T01:55:02;7.03;;;6.33;;
6723;SDS011;3399;52.530;13.304;2022-09-24T01:57:42;6.90;;;6.20;;
6723;SDS011;3399;52.530;13.304;2022-09-24T02:00:14;6.50;;;5.90;;
6723;SDS011;3399;52.530;13.304;2022-09-24T02:05:21;7.30;;;6.60;;
6723;SDS011;3399;52.530;13.304;2022-09-24T02:08:09;6.47;;;5.90;;
6723;SDS011;3399;52.530;13.304;2022-09-24T02:10:43;7.43;;;6.00;;
6723;SDS011;3399;52.530;13.304;2022-09-24T02:13:28;5.70;;;5.20;;
6723;SDS011;3399;52.530;13.304;2022-09-24T02:16:00;6.90;;;6.30;;
6723;SDS011;3399;52.530;13.304;2022-09-24T02:18:30;8.10;;;6.57;;
6723;SDS011;3399;52.530;13.304;2022-09-24T02:21:00;7.03;;;5.67;;
6723;SDS011;3399;52.530;13.304;2022-09-24T02:23:30;7.50;;;6.80;;
6723;SDS011;3399;52.530;13.304;2022-09-24T02:26:00;7.53;;;6.80;;
6723;SDS011;3399;52.530;13.304;2022-09-24T02:28:26;6.70;;;6.00;;
6723;SDS011;3399;52.530;13.304;2022-09-24T02:30:54;6.40;;;5.90;;
6723;SDS011;3399;52.530;13.304;2022-09-24T02:33:26;7.57;;;6.10;;
6723;SDS011;3399;52.530;13.304;2022-09-24T02:36:24;8.20;;;6.13;;
6723;SDS011;3399;52.530;13.304;2022-09-24T02:38:50;7.40;;;6.60;;
6723;SDS011;3399;52.530;13.304;2022-09-24T02:41:16;9.13;;;6.33;;
6723;SDS011;3399;52.530;13.304;2022-09-24T02:43:43;5.93;;;5.43;;
6723;SDS011;3399;52.530;13.304;2022-09-24T02:46:08;6.90;;;6.30;;
6723;SDS011;3399;52.530;13.304;2022-09-24T02:48:34;5.97;;;5.43;;
6723;SDS011;3399;52.530;13.304;2022-09-24T02:51:01;6.43;;;5.83;;
6723;SDS011;3399;52.530;13.304;2022-09-24T02:53:28;8.43;;;7.13;;
6723;SDS011;3399;52.530;13.304;2022-09-24T02:55:54;7.37;;;6.67;;
6723;SDS011;3399;52.530;13.304;2022-09-24T02:58:19;6.63;;;6.03;;
6723;SDS011;3399;52.530;13.304;2022-09-24T03:00:45;6.73;;;6.10;;
6723;SDS011;3399;52.530;13.304;2022-09-24T03:03:10;7.30;;;6.70;;
6723;SDS011;3399;52.530;13.304;2022-09-24T03:05:36;7.40;;;6.67;;
6723;SDS011;3399;52.530;13.304;2022-09-24T03:08:01;6.87;;;6.07;;
6723;SDS011;3399;52.530;13.304;2022-09-24T03:10:27;10.07;;;6.47;;
6723;SDS011;3399;52.530;13.304;2022-09-24T03:12:52;8.30;;;6.30;;
6723;SDS011;3399;52.530;13.304;2022-09-24T03:15:18;9.27;;;6.37;;
6723;SDS011;3399;52.530;13.304;2022-09-24T03:17:43;7.27;;;6.67;;
6723;SDS011;3399;52.530;13.304;2022-09-24T03:20:09;9.20;;;7.13;;
6723;SDS011;3399;52.530;13.304;2022-09-24T03:22:34;9.30;;;6.60;;
6723;SDS011;3399;52.530;13.304;2022-09-24T03:25:00;7.97;;;6.17;;
6723;SDS011;3399;52.530;13.304;2022-09-24T03:27:27;6.07;;;5.50;;
6723;SDS011;3399;52.530;13.304;2022-09-24T03:29:52;6.57;;;5.97;;
6723;SDS011;3399;52.530;13.304;2022-09-24T03:32:36;8.60;;;6.43;;
6723;SDS011;3399;52.530;13.304;2022-09-24T03:35:03;7.20;;;6.50;;
6723;SDS011;3399;52.530;13.304;2022-09-24T03:37:29;7.97;;;6.60;;
6723;SDS011;3399;52.530;13.304;2022-09-24T03:39:56;9.60;;;6.90;;
6723;SDS011;3399;52.530;13.304;2022-09-24T03:42:21;7.70;;;7.00;;
6723;SDS011;3399;52.530;13.304;2022-09-24T03:44:46;7.97;;;6.90;;
6723;SDS011;3399;52.530;13.304;2022-09-24T03:47:12;7.80;;;7.00;;
6723;SDS011;3399;52.530;13.304;2022-09-24T03:49:37;7.60;;;6.80;;
6723;SDS011;3399;52.530;13.304;2022-09-24T03:52:03;6.70;;;6.10;;
6723;SDS011;3399;52.530;13.304;2022-09-24T03:54:28;7.37;;;6.67;;
6723;SDS011;3399;52.530;13.304;2022-09-24T03:56:54;6.77;;;6.17;;
6723;SDS011;3399;52.530;13.304;2022-09-24T03:59:19;8.60;;;7.00;;
6723;SDS011;3399;52.530;13.304;2022-09-24T04:01:45;6.80;;;6.17;;
6723;SDS011;3399;52.530;13.304;2022-09-24T04:04:10;8.07;;;6.87;;
6723;SDS011;3399;52.530;13.304;2022-09-24T04:06:39;10.63;;;7.07;;
6723;SDS011;3399;52.530;13.304;2022-09-24T04:09:04;7.60;;;6.87;;
6723;SDS011;3399;52.530;13.304;2022-09-24T04:11:30;7.13;;;6.53;;
6723;SDS011;3399;52.530;13.304;2022-09-24T04:13:58;8.00;;;7.27;;
6723;SDS011;3399;52.530;13.304;2022-09-24T04:16:23;7.53;;;6.83;;
6723;SDS011;3399;52.530;13.304;2022-09-24T04:18:48;7.97;;;6.13;;
6723;SDS011;3399;52.530;13.304;2022-09-24T04:21:14;7.37;;;6.63;;
6723;SDS011;3399;52.530;13.304;2022-09-24T04:23:40;8.40;;;7.60;;
6723;SDS011;3399;52.530;13.304;2022-09-24T04:26:06;7.67;;;6.97;;
6723;SDS011;3399;52.530;13.304;2022-09-24T04:28:31;8.13;;;7.33;;
6723;SDS011;3399;52.530;13.304;2022-09-24T04:30:57;9.27;;;7.77;;
6723;SDS011;3399;52.530;13.304;2022-09-24T04:33:22;7.50;;;6.47;;
6723;SDS011;3399;52.530;13.304;2022-09-24T04:35:48;8.33;;;7.07;;
6723;SDS011;3399;52.530;13.304;2022-09-24T04:38:13;7.73;;;7.00;;
6723;SDS011;3399;52.530;13.304;2022-09-24T04:40:39;8.17;;;7.47;;
6723;SDS011;3399;52.530;13.304;2022-09-24T04:43:05;7.67;;;6.97;;
6723;SDS011;3399;52.530;13.304;2022-09-24T04:45:31;7.83;;;7.03;;
6723;SDS011;3399;52.530;13.304;2022-09-24T04:47:57;7.30;;;6.60;;
6723;SDS011;3399;52.530;13.304;2022-09-24T04:50:23;10.00;;;6.90;;
6723;SDS011;3399;52.530;13.304;2022-09-24T04:52:50;9.17;;;7.40;;
6723;SDS011;3399;52.530;13.304;2022-09-24T04:55:15;8.37;;;6.73;;
6723;SDS011;3399;52.530;13.304;2022-09-24T04:57:42;7.60;;;6.97;;
6723;SDS011;3399;52.530;13.304;2022-09-24T05:00:10;7.53;;;6.93;;
6723;SDS011;3399;52.530;13.304;2022-09-24T05:02:38;7.83;;;6.90;;
6723;SDS011;3399;52.530;13.304;2022-09-24T05:05:05;9.37;;;7.47;;
6723;SDS011;3399;52.530;13.304;2022-09-24T05:07:30;7.83;;;7.13;;
6723;SDS011;3399;52.530;13.304;2022-09-24T05:09:56;8.63;;;7.50;;
6723;SDS011;3399;52.530;13.304;2022-09-24T05:12:21;7.83;;;6.77;;
6723;SDS011;3399;52.530;13.304;2022-09-24T05:14:47;9.63;;;7.23;;
6723;SDS011;3399;52.530;13.304;2022-09-24T05:17:12;8.03;;;7.30;;
6723;SDS011;3399;52.530;13.304;2022-09-24T05:19:38;7.80;;;7.00;;
6723;SDS011;3399;52.530;13.304;2022-09-24T05:22:04;7.93;;;7.23;;
6723;SDS011;3399;52.530;13.304;2022-09-24T05:24:29;8.10;;;7.30;;
6723;SDS011;3399;52.530;13.304;2022-09-24T05:26:55;8.50;;;7.60;;
6723;SDS011;3399;52.530;13.304;2022-09-24T05:29:33;7.93;;;7.03;;
6723;SDS011;3399;52.530;13.304;2022-09-24T05:32:04;8.97;;;6.33;;
6723;SDS011;3399;52.530;13.304;2022-09-24T05:34:37;9.23;;;7.07;;
6723;SDS011;3399;52.530;13.304;2022-09-24T05:37:03;8.70;;;7.43;;
6723;SDS011;3399;52.530;13.304;2022-09-24T05:39:28;7.70;;;6.97;;
6723;SDS011;3399;52.530;13.304;2022-09-24T05:41:55;8.23;;;7.53;;
6723;SDS011;3399;52.530;13.304;2022-09-24T05:44:21;8.50;;;7.80;;
6723;SDS011;3399;52.530;13.304;2022-09-24T05:46:47;7.90;;;7.10;;
6723;SDS011;3399;52.530;13.304;2022-09-24T05:49:13;8.23;;;7.27;;
6723;SDS011;3399;52.530;13.304;2022-09-24T05:51:39;12.60;;;7.87;;
6723;SDS011;3399;52.530;13.304;2022-09-24T05:54:04;21.37;;;9.13;;
6723;SDS011;3399;52.530;13.304;2022-09-24T05:56:30;11.73;;;8.83;;
6723;SDS011;3399;52.530;13.304;2022-09-24T05:58:56;12.63;;;7.70;;
6723;SDS011;3399;52.530;13.304;2022-09-24T06:01:21;11.37;;;7.70;;
6723;SDS011;3399;52.530;13.304;2022-09-24T06:03:46;10.43;;;7.77;;
6723;SDS011;3399;52.530;13.304;2022-09-24T06:06:12;8.10;;;7.40;;
6723;SDS011;3399;52.530;13.304;2022-09-24T06:08:38;12.80;;;8.17;;
6723;SDS011;3399;52.530;13.304;2022-09-24T06:11:05;8.87;;;7.30;;
6723;SDS011;3399;52.530;13.304;2022-09-24T06:13:32;8.57;;;7.77;;
6723;SDS011;3399;52.530;13.304;2022-09-24T06:16:02;7.83;;;6.37;;
6723;SDS011;3399;52.530;13.304;2022-09-24T06:18:29;9.10;;;6.87;;
6723;SDS011;3399;52.530;13.304;2022-09-24T06:21:02;9.23;;;7.37;;
6723;SDS011;3399;52.530;13.304;2022-09-24T06:23:29;7.70;;;7.00;;
6723;SDS011;3399;52.530;13.304;2022-09-24T06:25:55;9.10;;;7.00;;
6723;SDS011;3399;52.530;13.304;2022-09-24T06:28:21;7.63;;;6.77;;
6723;SDS011;3399;52.530;13.304;2022-09-24T06:30:49;11.30;;;7.13;;
6723;SDS011;3399;52.530;13.304;2022-09-24T06:33:14;7.33;;;6.73;;
6723;SDS011;3399;52.530;13.304;2022-09-24T06:35:41;7.50;;;6.80;;
6723;SDS011;3399;52.530;13.304;2022-09-24T06:38:09;7.40;;;6.80;;
6723;SDS011;3399;52.530;13.304;2022-09-24T06:40:36;7.63;;;6.80;;
6723;SDS011;3399;52.530;13.304;2022-09-24T06:43:03;8.23;;;7.23;;
6723;SDS011;3399;52.530;13.304;2022-09-24T06:45:29;7.73;;;6.97;;
6723;SDS011;3399;52.530;13.304;2022-09-24T06:47:55;7.83;;;7.07;;
6723;SDS011;3399;52.530;13.304;2022-09-24T06:50:22;7.97;;;7.13;;
6723;SDS011;3399;52.530;13.304;2022-09-24T06:52:50;10.37;;;7.80;;
6723;SDS011;3399;52.530;13.304;2022-09-24T06:55:16;7.23;;;6.43;;
6723;SDS011;3399;52.530;13.304;2022-09-24T06:57:42;8.43;;;7.40;;
6723;SDS011;3399;52.530;13.304;2022-09-24T07:00:08;9.70;;;7.57;;
6723;SDS011;3399;52.530;13.304;2022-09-24T07:02:34;8.47;;;7.67;;
6723;SDS011;3399;52.530;13.304;2022-09-24T07:05:00;8.43;;;7.50;;
6723;SDS011;3399;52.530;13.304;2022-09-24T07:07:25;9.30;;;7.80;;
6723;SDS011;3399;52.530;13.304;2022-09-24T07:09:56;9.90;;;7.10;;
6723;SDS011;3399;52.530;13.304;2022-09-24T07:12:23;7.93;;;7.23;;
6723;SDS011;3399;52.530;13.304;2022-09-24T07:14:48;8.13;;;7.43;;
6723;SDS011;3399;52.530;13.304;2022-09-24T07:17:14;11.47;;;7.37;;
6723;SDS011;3399;52.530;13.304;2022-09-24T07:19:40;8.90;;;8.10;;
6723;SDS011;3399;52.530;13.304;2022-09-24T07:22:06;8.30;;;7.33;;
6723;SDS011;3399;52.530;13.304;2022-09-24T07:24:31;7.90;;;7.00;;
6723;SDS011;3399;52.530;13.304;2022-09-24T07:26:57;8.47;;;7.50;;
6723;SDS011;3399;52.530;13.304;2022-09-24T07:29:22;8.23;;;7.57;;
6723;SDS011;3399;52.530;13.304;2022-09-24T07:31:48;7.97;;;7.27;;
6723;SDS011;3399;52.530;13.304;2022-09-24T07:34:13;8.97;;;7.97;;
6723;SDS011;3399;52.530;13.304;2022-09-24T07:36:39;10.00;;;8.27;;
6723;SDS011;3399;52.530;13.304;2022-09-24T07:39:05;9.60;;;7.47;;
6723;SDS011;3399;52.530;13.304;2022-09-24T07:41:31;14.13;;;7.60;;
6723;SDS011;3399;52.530;13.304;2022-09-24T07:43:58;8.50;;;7.70;;
6723;SDS011;3399;52.530;13.304;2022-09-24T07:46:23;8.60;;;7.80;;
6723;SDS011;3399;52.530;13.304;2022-09-24T07:48:51;9.37;;;8.57;;
6723;SDS011;3399;52.530;13.304;2022-09-24T07:51:20;8.30;;;7.43;;
6723;SDS011;3399;52.530;13.304;2022-09-24T07:53:46;7.70;;;6.90;;
6723;SDS011;3399;52.530;13.304;2022-09-24T07:56:12;8.60;;;7.80;;
6723;SDS011;3399;52.530;13.304;2022-09-24T07:58:37;8.50;;;7.70;;
6723;SDS011;3399;52.530;13.304;2022-09-24T08:01:03;9.27;;;8.37;;
6723;SDS011;3399;52.530;13.304;2022-09-24T08:03:28;8.30;;;7.50;;
6723;SDS011;3399;52.530;13.304;2022-09-24T08:05:54;9.47;;;7.53;;
6723;SDS011;3399;52.530;13.304;2022-09-24T08:08:23;7.37;;;6.67;;
6723;SDS011;3399;52.530;13.304;2022-09-24T08:10:49;9.27;;;7.57;;
6723;SDS011;3399;52.530;13.304;2022-09-24T08:13:15;8.33;;;7.30;;
6723;SDS011;3399;52.530;13.304;2022-09-24T08:15:40;8.50;;;7.43;;
6723;SDS011;3399;52.530;13.304;2022-09-24T08:18:06;8.20;;;7.40;;
6723;SDS011;3399;52.530;13.304;2022-09-24T08:20:32;9.30;;;7.53;;
6723;SDS011;3399;52.530;13.304;2022-09-24T08:23:00;9.17;;;8.20;;
6723;SDS011;3399;52.530;13.304;2022-09-24T08:25:26;9.83;;;7.30;;
6723;SDS011;3399;52.530;13.304;2022-09-24T08:27:51;9.03;;;8.20;;
6723;SDS011;3399;52.530;13.304;2022-09-24T08:30:17;8.27;;;7.47;;
6723;SDS011;3399;52.530;13.304;2022-09-24T08:32:46;9.10;;;8.20;;
6723;SDS011;3399;52.530;13.304;2022-09-24T08:35:12;8.17;;;7.47;;
6723;SDS011;3399;52.530;13.304;2022-09-24T08:37:39;8.77;;;7.67;;
6723;SDS011;3399;52.530;13.304;2022-09-24T08:40:05;7.90;;;7.13;;
6723;SDS011;3399;52.530;13.304;2022-09-24T08:45:18;7.50;;;6.63;;
6723;SDS011;3399;52.530;13.304;2022-09-24T08:48:11;7.83;;;7.13;;
6723;SDS011;3399;52.530;13.304;2022-09-24T08:50:47;9.93;;;7.67;;
6723;SDS011;3399;52.530;13.304;2022-09-24T08:53:29;7.40;;;6.67;;
6723;SDS011;3399;52.530;13.304;2022-09-24T08:56:12;9.23;;;7.77;;
6723;SDS011;3399;52.530;13.304;2022-09-24T08:58:46;8.80;;;7.93;;
6723;SDS011;3399;52.530;13.304;2022-09-24T09:01:25;8.20;;;7.50;;
6723;SDS011;3399;52.530;13.304;2022-09-24T09:06:33;8.70;;;7.87;;
6723;SDS011;3399;52.530;13.304;2022-09-24T09:09:14;8.77;;;7.97;;
6723;SDS011;3399;52.530;13.304;2022-09-24T09:11:42;12.00;;;8.27;;
6723;SDS011;3399;52.530;13.304;2022-09-24T09:16:49;8.50;;;7.70;;
6723;SDS011;3399;52.530;13.304;2022-09-24T09:19:20;8.20;;;6.87;;
6723;SDS011;3399;52.530;13.304;2022-09-24T09:21:52;10.17;;;7.10;;
6723;SDS011;3399;52.530;13.304;2022-09-24T09:24:27;9.60;;;7.80;;
6723;SDS011;3399;52.530;13.304;2022-09-24T09:27:13;8.83;;;7.93;;
6723;SDS011;3399;52.530;13.304;2022-09-24T09:29:40;7.77;;;7.00;;
6723;SDS011;3399;52.530;13.304;2022-09-24T09:35:20;8.30;;;7.60;;
6723;SDS011;3399;52.530;13.304;2022-09-24T09:37:56;7.80;;;7.10;;
6723;SDS011;3399;52.530;13.304;2022-09-24T09:40:40;9.23;;;7.93;;
6723;SDS011;3399;52.530;13.304;2022-09-24T09:43:12;8.33;;;7.53;;
6723;SDS011;3399;52.530;13.304;2022-09-24T09:45:54;8.13;;;7.43;;
6723;SDS011;3399;52.530;13.304;2022-09-24T09:48:27;8.07;;;6.87;;
6723;SDS011;3399;52.530;13.304;2022-09-24T09:51:01;7.43;;;6.63;;
6723;SDS011;3399;52.530;13.304;2022-09-24T09:53:30;7.97;;;7.17;;
6723;SDS011;3399;52.530;13.304;2022-09-24T09:55:56;8.03;;;7.20;;
6723;SDS011;3399;52.530;13.304;2022-09-24T09:58:25;6.87;;;6.23;;
6723;SDS011;3399;52.530;13.304;2022-09-24T10:00:52;7.70;;;7.00;;
6723;SDS011;3399;52.530;13.304;2022-09-24T10:03:32;7.80;;;6.93;;
6723;SDS011;3399;52.530;13.304;2022-09-24T10:06:04;7.37;;;6.67;;
6723;SDS011;3399;52.530;13.304;2022-09-24T10:08:31;6.90;;;5.83;;
6723;SDS011;3399;52.530;13.304;2022-09-24T10:10:57;9.10;;;6.50;;
6723;SDS011;3399;52.530;13.304;2022-09-24T10:13:25;8.37;;;6.60;;
6723;SDS011;3399;52.530;13.304;2022-09-24T10:16:01;7.47;;;6.50;;
6723;SDS011;3399;52.530;13.304;2022-09-24T10:18:32;7.70;;;6.90;;
6723;SDS011;3399;52.530;13.304;2022-09-24T10:21:10;10.13;;;7.17;;
6723;SDS011;3399;52.530;13.304;2022-09-24T10:23:38;6.87;;;6.27;;
6723;SDS011;3399;52.530;13.304;2022-09-24T10:26:08;8.27;;;6.73;;
6723;SDS011;3399;52.530;13.304;2022-09-24T10:28:36;7.73;;;7.00;;
6723;SDS011;3399;52.530;13.304;2022-09-24T10:31:28;10.67;;;7.37;;
6723;SDS011;3399;52.530;13.304;2022-09-24T10:33:56;7.27;;;6.53;;
6723;SDS011;3399;52.530;13.304;2022-09-24T10:36:25;7.17;;;6.27;;
6723;SDS011;3399;52.530;13.304;2022-09-24T10:39:02;7.40;;;6.00;;
6723;SDS011;3399;52.530;13.304;2022-09-24T10:41:49;7.37;;;6.60;;
6723;SDS011;3399;52.530;13.304;2022-09-24T10:44:16;6.73;;;6.13;;
6723;SDS011;3399;52.530;13.304;2022-09-24T10:55:12;7.40;;;6.73;;
6723;SDS011;3399;52.530;13.304;2022-09-24T10:58:00;11.90;;;6.93;;
6723;SDS011;3399;52.530;13.304;2022-09-24T11:00:30;7.07;;;6.37;;
6723;SDS011;3399;52.530;13.304;2022-09-24T11:03:21;7.43;;;6.60;;
6723;SDS011;3399;52.530;13.304;2022-09-24T11:06:13;7.60;;;6.90;;
6723;SDS011;3399;52.530;13.304;2022-09-24T11:14:38;7.43;;;6.80;;
6723;SDS011;3399;52.530;13.304;2022-09-24T11:17:29;6.50;;;6.00;;
6723;SDS011;3399;52.530;13.304;2022-09-24T11:22:49;6.57;;;6.03;;
6723;SDS011;3399;52.530;13.304;2022-09-24T11:28:24;7.60;;;6.77;;
6723;SDS011;3399;52.530;13.304;2022-09-24T11:42:02;6.57;;;5.87;;
6723;SDS011;3399;52.530;13.304;2022-09-24T11:47:50;5.93;;;5.50;;
6723;SDS011;3399;52.530;13.304;2022-09-24T11:56:44;7.23;;;6.27;;
6723;SDS011;3399;52.530;13.304;2022-09-24T11:59:34;6.23;;;5.73;;
6723;SDS011;3399;52.530;13.304;2022-09-24T12:02:11;6.63;;;5.83;;
6723;SDS011;3399;52.530;13.304;2022-09-24T12:04:53;6.40;;;5.80;;
6723;SDS011;3399;52.530;13.304;2022-09-24T12:07:33;5.87;;;5.27;;
6723;SDS011;3399;52.530;13.304;2022-09-24T12:10:19;6.50;;;5.90;;
6723;SDS011;3399;52.530;13.304;2022-09-24T12:12:48;7.07;;;5.40;;
6723;SDS011;3399;52.530;13.304;2022-09-24T12:15:17;5.13;;;4.77;;
6723;SDS011;3399;52.530;13.304;2022-09-24T12:17:50;6.10;;;5.30;;
6723;SDS011;3399;52.530;13.304;2022-09-24T12:20:26;6.03;;;5.43;;
6723;SDS011;3399;52.530;13.304;2022-09-24T12:23:03;6.97;;;6.23;;
6723;SDS011;3399;52.530;13.304;2022-09-24T12:25:37;6.20;;;5.60;;
6723;SDS011;3399;52.530;13.304;2022-09-24T12:28:13;8.20;;;5.90;;
6723;SDS011;3399;52.530;13.304;2022-09-24T12:31:03;5.70;;;5.20;;
6723;SDS011;3399;52.530;13.304;2022-09-24T12:37:00;5.07;;;4.53;;
6723;SDS011;3399;52.530;13.304;2022-09-24T12:39:31;4.67;;;4.30;;
6723;SDS011;3399;52.530;13.304;2022-09-24T12:42:18;5.93;;;4.97;;
6723;SDS011;3399;52.530;13.304;2022-09-24T12:44:47;5.97;;;4.87;;
6723;SDS011;3399;52.530;13.304;2022-09-24T12:47:24;5.07;;;4.67;;
6723;SDS011;3399;52.530;13.304;2022-09-24T12:49:56;5.00;;;4.57;;
6723;SDS011;3399;52.530;13.304;2022-09-24T12:52:31;4.50;;;4.10;;
6723;SDS011;3399;52.530;13.304;2022-09-24T12:55:17;8.67;;;5.17;;
6723;SDS011;3399;52.530;13.304;2022-09-24T12:58:05;7.50;;;5.27;;
6723;SDS011;3399;52.530;13.304;2022-09-24T13:00:33;5.30;;;4.80;;
6723;SDS011;3399;52.530;13.304;2022-09-24T13:03:03;6.70;;;6.10;;
6723;SDS011;3399;52.530;13.304;2022-09-24T13:05:44;6.37;;;5.23;;
6723;SDS011;3399;52.530;13.304;2022-09-24T13:10:53;6.03;;;5.40;;
6723;SDS011;3399;52.530;13.304;2022-09-24T13:13:28;6.07;;;5.53;;
6723;SDS011;3399;52.530;13.304;2022-09-24T13:15:57;6.10;;;5.60;;
6723;SDS011;3399;52.530;13.304;2022-09-24T13:18:26;5.53;;;5.03;;
6723;SDS011;3399;52.530;13.304;2022-09-24T13:21:07;5.33;;;4.83;;
6723;SDS011;3399;52.530;13.304;2022-09-24T13:23:44;6.10;;;4.87;;
6723;SDS011;3399;52.530;13.304;2022-09-24T13:26:13;5.97;;;5.37;;
6723;SDS011;3399;52.530;13.304;2022-09-24T13:28:49;5.87;;;5.27;;
6723;SDS011;3399;52.530;13.304;2022-09-24T13:33:46;6.33;;;5.23;;
6723;SDS011;3399;52.530;13.304;2022-09-24T13:36:16;6.40;;;5.30;;
6723;SDS011;3399;52.530;13.304;2022-09-24T13:39:09;5.97;;;5.07;;
6723;SDS011;3399;52.530;13.304;2022-09-24T13:42:06;7.07;;;5.80;;
6723;SDS011;3399;52.530;13.304;2022-09-24T13:44:54;5.37;;;4.97;;
6723;SDS011;3399;52.530;13.304;2022-09-24T13:49:53;6.90;;;4.97;;
6723;SDS011;3399;52.530;13.304;2022-09-24T13:52:40;5.77;;;4.50;;
6723;SDS011;3399;52.530;13.304;2022-09-24T13:55:16;5.20;;;4.80;;
6723;SDS011;3399;52.530;13.304;2022-09-24T13:57:57;5.50;;;5.10;;
6723;SDS011;3399;52.530;13.304;2022-09-24T14:00:23;5.97;;;5.40;;
6723;SDS011;3399;52.530;13.304;2022-09-24T14:03:04;5.83;;;5.23;;
6723;SDS011;3399;52.530;13.304;2022-09-24T14:05:44;5.50;;;5.00;;
6723;SDS011;3399;52.530;13.304;2022-09-24T14:08:11;6.17;;;5.20;;
6723;SDS011;3399;52.530;13.304;2022-09-24T14:10:39;5.40;;;4.97;;
6723;SDS011;3399;52.530;13.304;2022-09-24T14:15:50;5.10;;;4.70;;
6723;SDS011;3399;52.530;13.304;2022-09-24T14:18:22;4.60;;;4.17;;
6723;SDS011;3399;52.530;13.304;2022-09-24T14:20:51;4.10;;;3.80;;
6723;SDS011;3399;52.530;13.304;2022-09-24T14:23:25;4.23;;;3.93;;
6723;SDS011;3399;52.530;13.304;2022-09-24T14:25:56;4.80;;;4.17;;
6723;SDS011;3399;52.530;13.304;2022-09-24T14:28:22;3.93;;;3.63;;
6723;SDS011;3399;52.530;13.304;2022-09-24T14:30:53;4.50;;;4.10;;
6723;SDS011;3399;52.530;13.304;2022-09-24T14:33:21;7.90;;;3.90;;
6723;SDS011;3399;52.530;13.304;2022-09-24T14:35:53;4.57;;;4.17;;
6723;SDS011;3399;52.530;13.304;2022-09-24T14:38:21;6.10;;;3.90;;
6723;SDS011;3399;52.530;13.304;2022-09-24T14:40:51;4.80;;;4.30;;
6723;SDS011;3399;52.530;13.304;2022-09-24T14:43:25;4.00;;;3.70;;
6723;SDS011;3399;52.530;13.304;2022-09-24T14:46:19;3.73;;;3.43;;
6723;SDS011;3399;52.530;13.304;2022-09-24T14:48:49;3.63;;;3.33;;
6723;SDS011;3399;52.530;13.304;2022-09-24T14:51:20;3.70;;;3.40;;
6723;SDS011;3399;52.530;13.304;2022-09-24T14:53:56;3.90;;;3.60;;
6723;SDS011;3399;52.530;13.304;2022-09-24T14:56:29;4.00;;;3.60;;
6723;SDS011;3399;52.530;13.304;2022-09-24T14:58:57;6.70;;;4.77;;
6723;SDS011;3399;52.530;13.304;2022-09-24T15:01:30;4.13;;;3.83;;
6723;SDS011;3399;52.530;13.304;2022-09-24T15:03:58;5.40;;;3.93;;
6723;SDS011;3399;52.530;13.304;2022-09-24T15:06:30;4.37;;;3.57;;
6723;SDS011;3399;52.530;13.304;2022-09-24T15:08:58;4.33;;;4.03;;
6723;SDS011;3399;52.530;13.304;2022-09-24T15:11:39;4.57;;;4.17;;
6723;SDS011;3399;52.530;13.304;2022-09-24T15:16:40;5.03;;;4.53;;
6723;SDS011;3399;52.530;13.304;2022-09-24T15:19:15;7.27;;;5.30;;
6723;SDS011;3399;52.530;13.304;2022-09-24T15:21:49;6.33;;;5.43;;
6723;SDS011;3399;52.530;13.304;2022-09-24T15:24:17;5.77;;;5.27;;
6723;SDS011;3399;52.530;13.304;2022-09-24T15:26:45;5.80;;;5.17;;
6723;SDS011;3399;52.530;13.304;2022-09-24T15:29:17;6.93;;;6.07;;
6723;SDS011;3399;52.530;13.304;2022-09-24T15:31:45;8.00;;;6.60;;
6723;SDS011;3399;52.530;13.304;2022-09-24T15:34:11;9.50;;;6.17;;
6723;SDS011;3399;52.530;13.304;2022-09-24T15:36:36;7.13;;;5.90;;
6723;SDS011;3399;52.530;13.304;2022-09-24T15:39:02;7.03;;;6.33;;
6723;SDS011;3399;52.530;13.304;2022-09-24T15:41:28;6.83;;;6.23;;
6723;SDS011;3399;52.530;13.304;2022-09-24T15:43:57;6.43;;;5.87;;
6723;SDS011;3399;52.530;13.304;2022-09-24T15:46:23;6.50;;;5.90;;
6723;SDS011;3399;52.530;13.304;2022-09-24T15:48:49;7.47;;;5.97;;
6723;SDS011;3399;52.530;13.304;2022-09-24T15:51:15;5.93;;;5.33;;
6723;SDS011;3399;52.530;13.304;2022-09-24T15:53:44;6.17;;;5.67;;
6723;SDS011;3399;52.530;13.304;2022-09-24T15:56:10;7.27;;;5.63;;
6723;SDS011;3399;52.530;13.304;2022-09-24T15:58:36;7.50;;;6.80;;
6723;SDS011;3399;52.530;13.304;2022-09-24T16:01:02;6.50;;;5.90;;
6723;SDS011;3399;52.530;13.304;2022-09-24T16:03:29;8.07;;;5.90;;
6723;SDS011;3399;52.530;13.304;2022-09-24T16:05:56;6.90;;;6.30;;
6723;SDS011;3399;52.530;13.304;2022-09-24T16:08:23;7.20;;;5.67;;
6723;SDS011;3399;52.530;13.304;2022-09-24T16:10:49;6.33;;;5.80;;
6723;SDS011;3399;52.530;13.304;2022-09-24T16:13:16;6.43;;;5.83;;
6723;SDS011;3399;52.530;13.304;2022-09-24T16:15:43;7.97;;;7.17;;
6723;SDS011;3399;52.530;13.304;2022-09-24T16:18:10;7.33;;;6.63;;
6723;SDS011;3399;52.530;13.304;2022-09-24T16:20:38;6.93;;;6.23;;
6723;SDS011;3399;52.530;13.304;2022-09-24T16:23:04;7.07;;;6.33;;
6723;SDS011;3399;52.530;13.304;2022-09-24T16:25:30;6.93;;;6.23;;
6723;SDS011;3399;52.530;13.304;2022-09-24T16:27:56;8.63;;;6.87;;
6723;SDS011;3399;52.530;13.304;2022-09-24T16:30:22;6.33;;;5.77;;
6723;SDS011;3399;52.530;13.304;2022-09-24T16:32:48;6.80;;;6.20;;
6723;SDS011;3399;52.530;13.304;2022-09-24T16:35:14;7.77;;;6.97;;
6723;SDS011;3399;52.530;13.304;2022-09-24T16:37:40;8.77;;;6.63;;